createdAt,value
2019-04-06T00:00:21.464Z,49.43
2019-04-06T00:02:49.200Z,45.30
2019-04-06T00:05:16.858Z,52.93
2019-04-06T00:07:44.651Z,42.80
2019-04-06T00:10:12.770Z,43.00
2019-04-06T00:12:40.863Z,41.97
2019-04-06T00:15:09.114Z,39.50
2019-04-06T00:17:36.821Z,43.27
2019-04-06T00:20:06.615Z,39.15
2019-04-06T00:22:34.380Z,44.10
2019-04-06T00:25:02.028Z,42.90
2019-04-06T00:27:30.075Z,40.93
2019-04-06T00:29:57.806Z,37.90
2019-04-06T00:32:29.854Z,43.77
2019-04-06T00:34:57.594Z,46.20
2019-04-06T00:37:25.335Z,41.63
2019-04-06T00:39:53.450Z,43.63
2019-04-06T00:42:21.599Z,44.00
2019-04-06T00:44:49.796Z,41.47
2019-04-06T00:47:17.506Z,40.43
2019-04-06T00:49:45.738Z,42.93
2019-04-06T00:52:13.481Z,42.17
2019-04-06T00:54:41.102Z,39.53
2019-04-06T00:57:09.207Z,43.90
2019-04-06T00:59:37.294Z,40.00
2019-04-06T01:02:06.778Z,56.20
2019-04-06T01:04:34.444Z,45.17
2019-04-06T01:07:02.895Z,54.47
2019-04-06T01:09:30.926Z,45.53
2019-04-06T01:11:59.037Z,49.77
2019-04-06T01:14:26.817Z,53.83
2019-04-06T01:16:54.558Z,46.63
2019-04-06T01:19:22.334Z,41.80
2019-04-06T01:21:49.999Z,48.60
2019-04-06T01:24:17.684Z,54.50
2019-04-06T01:26:45.385Z,47.47
2019-04-06T01:29:13.090Z,46.80
2019-04-06T01:31:41.141Z,44.23
2019-04-06T01:34:09.239Z,49.03
2019-04-06T01:36:37.307Z,44.73
2019-04-06T01:39:06.158Z,42.87
2019-04-06T01:41:33.928Z,43.03
2019-04-06T01:44:01.751Z,42.77
2019-04-06T01:46:29.413Z,43.27
2019-04-06T01:48:57.102Z,46.57
2019-04-06T01:51:24.854Z,42.00
2019-04-06T01:53:52.955Z,42.03
2019-04-06T01:56:20.676Z,46.47
2019-04-06T01:58:48.790Z,44.50
2019-04-06T02:01:24.381Z,39.87
2019-04-06T02:03:52.639Z,43.90
2019-04-06T02:06:20.758Z,40.90
2019-04-06T02:08:48.812Z,40.93
2019-04-06T02:11:16.923Z,42.63
2019-04-06T02:13:44.634Z,45.77
2019-04-06T02:16:12.451Z,45.73
2019-04-06T02:18:40.109Z,44.13
2019-04-06T02:21:07.888Z,40.77
2019-04-06T02:23:35.651Z,42.63
2019-04-06T02:26:03.758Z,42.07
2019-04-06T02:28:31.919Z,41.57
2019-04-06T02:31:10.530Z,45.33
2019-04-06T02:33:55.042Z,43.17
2019-04-06T02:36:24.342Z,41.30
2019-04-06T02:38:59.965Z,45.73
2019-04-06T02:41:45.714Z,48.80
2019-04-06T02:44:13.386Z,45.47
2019-04-06T02:46:41.060Z,43.70
2019-04-06T02:49:09.122Z,44.47
2019-04-06T02:51:36.798Z,47.50
2019-04-06T02:54:05.840Z,41.60
2019-04-06T02:56:45.473Z,43.50
2019-04-06T02:59:03.692Z,44.43
2019-04-06T03:01:31.423Z,43.93
2019-04-06T03:04:00.375Z,45.43
2019-04-06T03:06:28.234Z,49.93
2019-04-06T03:08:55.909Z,44.70
2019-04-06T03:11:24.176Z,53.07
2019-04-06T03:13:51.845Z,48.03
2019-04-06T03:16:19.887Z,47.87
2019-04-06T03:18:47.622Z,47.17
2019-04-06T03:21:15.585Z,42.10
2019-04-06T03:23:50.461Z,44.00
2019-04-06T03:26:12.815Z,44.67
2019-04-06T03:28:40.515Z,46.43
2019-04-06T03:31:09.449Z,41.17
2019-04-06T03:33:37.642Z,42.13
2019-04-06T03:36:06.035Z,41.93
2019-04-06T03:38:33.783Z,44.97
2019-04-06T03:41:01.542Z,63.97
2019-04-06T03:43:29.297Z,55.83
2019-04-06T03:45:57.079Z,48.60
2019-04-06T03:48:24.839Z,43.10
2019-04-06T03:50:52.920Z,51.17
2019-04-06T03:53:20.955Z,46.37
2019-04-06T03:55:48.707Z,43.27
2019-04-06T03:58:16.376Z,40.47
2019-04-06T04:00:44.665Z,41.73
2019-04-06T04:03:12.407Z,39.67
2019-04-06T04:05:41.081Z,38.00
2019-04-06T04:08:09.207Z,43.30
2019-04-06T04:10:37.917Z,39.23
2019-04-06T04:13:06.588Z,38.83
2019-04-06T04:15:34.607Z,43.83
2019-04-06T04:18:02.673Z,41.70
2019-04-06T04:20:30.770Z,44.53
2019-04-06T04:22:58.712Z,38.63
2019-04-06T04:25:26.628Z,38.30
2019-04-06T04:27:54.366Z,36.73
2019-04-06T04:30:32.204Z,47.30
2019-04-06T04:32:51.438Z,44.50
2019-04-06T04:35:19.210Z,33.03
2019-04-06T04:37:47.399Z,38.80
2019-04-06T04:40:15.610Z,43.13
2019-04-06T04:42:43.518Z,37.70
2019-04-06T04:45:11.918Z,40.00
2019-04-06T04:47:39.636Z,40.10
2019-04-06T04:50:07.547Z,43.47
2019-04-06T04:52:35.404Z,37.67
2019-04-06T04:55:03.583Z,35.00
2019-04-06T04:57:40.123Z,41.67
2019-04-06T05:00:01.115Z,38.10
2019-04-06T05:02:29.307Z,33.60
2019-04-06T05:04:56.997Z,48.53
2019-04-06T05:07:24.715Z,40.30
2019-04-06T05:09:52.455Z,37.70
2019-04-06T05:12:20.627Z,41.07
2019-04-06T05:14:55.989Z,47.23
2019-04-06T05:17:24.239Z,51.50
2019-04-06T05:19:51.905Z,54.13
2019-04-06T05:22:19.678Z,53.87
2019-04-06T05:24:47.737Z,56.13
2019-04-06T05:27:16.093Z,41.27
2019-04-06T05:29:43.831Z,38.03
2019-04-06T05:32:11.910Z,45.73
2019-04-06T05:34:40.120Z,38.80
2019-04-06T05:37:07.786Z,38.07
2019-04-06T05:39:35.610Z,36.17
2019-04-06T05:42:03.534Z,42.63
2019-04-06T05:44:31.603Z,38.43
2019-04-06T05:46:59.317Z,44.93
2019-04-06T05:49:27.071Z,38.90
2019-04-06T05:51:55.227Z,44.57
2019-04-06T05:54:23.405Z,41.83
2019-04-06T05:56:51.610Z,40.63
2019-04-06T05:59:19.574Z,52.30
2019-04-06T06:01:49.008Z,49.97
2019-04-06T06:04:17.410Z,52.27
2019-04-06T06:06:45.070Z,41.80
2019-04-06T06:09:12.777Z,41.53
2019-04-06T06:11:40.658Z,43.40
2019-04-06T06:14:08.783Z,48.23
2019-04-06T06:16:36.896Z,77.67
2019-04-06T06:19:05.109Z,59.57
2019-04-06T06:21:33.312Z,44.90
2019-04-06T06:24:01.162Z,48.87
2019-04-06T06:26:29.209Z,44.47
2019-04-06T06:28:57.049Z,46.47
2019-04-06T06:31:25.246Z,44.97
2019-04-06T06:33:53.237Z,44.87
2019-04-06T06:36:21.420Z,40.10
2019-04-06T06:38:49.245Z,42.00
2019-04-06T06:41:17.173Z,43.07
2019-04-06T06:43:45.544Z,42.80
2019-04-06T06:46:13.960Z,51.73
2019-04-06T06:48:43.062Z,36.13
2019-04-06T06:51:11.161Z,44.40
2019-04-06T06:53:38.993Z,36.37
2019-04-06T06:56:07.185Z,36.20
2019-04-06T06:58:34.850Z,33.23
2019-04-06T07:01:03.294Z,40.27
2019-04-06T07:03:31.886Z,39.47
2019-04-06T07:06:00.074Z,40.37
2019-04-06T07:08:27.793Z,31.30
2019-04-06T07:10:57.295Z,35.90
2019-04-06T07:13:24.953Z,36.13
2019-04-06T07:15:52.667Z,32.93
2019-04-06T07:18:20.392Z,35.57
2019-04-06T07:20:48.109Z,40.27
2019-04-06T07:23:15.806Z,38.43
2019-04-06T07:25:43.955Z,36.03
2019-04-06T07:28:12.174Z,33.50
2019-04-06T07:30:40.166Z,37.27
2019-04-06T07:33:07.920Z,34.27
2019-04-06T07:35:35.997Z,38.20
2019-04-06T07:38:03.714Z,38.33
2019-04-06T07:40:31.862Z,36.23
2019-04-06T07:42:59.578Z,48.73
2019-04-06T07:45:27.619Z,47.73
2019-04-06T07:47:55.344Z,50.73
2019-04-06T07:50:23.427Z,53.97
2019-04-06T07:52:51.778Z,42.07
2019-04-06T07:55:19.559Z,43.27
2019-04-06T07:57:47.796Z,58.03
2019-04-06T08:00:15.701Z,58.17
2019-04-06T08:02:44.012Z,47.50
2019-04-06T08:05:12.286Z,69.80
2019-04-06T08:07:40.641Z,57.90
2019-04-06T08:10:08.706Z,41.13
2019-04-06T08:12:36.848Z,48.90
2019-04-06T08:15:07.540Z,47.07
2019-04-06T08:17:35.480Z,45.47
2019-04-06T08:20:05.062Z,53.13
2019-04-06T08:22:32.832Z,43.80
2019-04-06T08:25:00.985Z,48.93
2019-04-06T08:27:29.113Z,37.60
2019-04-06T08:29:56.835Z,41.70
2019-04-06T08:32:24.906Z,43.27
2019-04-06T08:34:52.928Z,35.90
2019-04-06T08:37:21.039Z,51.47
2019-04-06T08:39:48.794Z,45.17
2019-04-06T08:42:16.574Z,45.13
2019-04-06T08:44:44.797Z,47.20
2019-04-06T08:47:12.809Z,44.03
2019-04-06T08:49:40.537Z,43.53
2019-04-06T08:52:08.667Z,41.23
2019-04-06T08:54:36.739Z,35.10
2019-04-06T08:57:04.458Z,31.97
2019-04-06T08:59:32.641Z,34.00
2019-04-06T09:02:00.961Z,34.73
2019-04-06T09:04:28.801Z,41.27
2019-04-06T09:06:56.514Z,37.57
2019-04-06T09:09:24.271Z,42.10
2019-04-06T09:11:51.966Z,36.83
2019-04-06T09:14:19.827Z,38.47
2019-04-06T09:16:47.533Z,32.37
2019-04-06T09:19:15.522Z,41.17
2019-04-06T09:21:43.398Z,32.60
2019-04-06T09:24:11.102Z,38.53
2019-04-06T09:26:39.036Z,37.27
2019-04-06T09:29:06.754Z,32.27
2019-04-06T09:31:34.832Z,39.67
2019-04-06T09:34:02.530Z,46.43
2019-04-06T09:36:30.635Z,40.03
2019-04-06T09:38:58.398Z,43.53
2019-04-06T09:41:26.599Z,40.63
2019-04-06T09:43:54.850Z,44.57
2019-04-06T09:46:36.450Z,32.90
2019-04-06T09:49:05.973Z,38.73
2019-04-06T09:51:47.945Z,33.43
2019-04-06T09:54:29.523Z,34.87
2019-04-06T09:57:07.896Z,30.87
2019-04-06T09:59:37.687Z,27.43
2019-04-06T10:02:23.718Z,34.67
2019-04-06T10:05:08.461Z,30.13
2019-04-06T10:07:37.943Z,25.07
2019-04-06T10:10:08.255Z,26.60
2019-04-06T10:12:40.213Z,31.40
2019-04-06T10:15:10.132Z,30.07
2019-04-06T10:17:56.266Z,29.53
2019-04-06T10:20:44.567Z,34.87
2019-04-06T10:23:17.176Z,27.43
2019-04-06T10:25:55.678Z,36.43
2019-04-06T10:28:41.219Z,34.87
2019-04-06T10:31:26.691Z,34.10
2019-04-06T10:34:10.845Z,27.57
2019-04-06T10:36:40.474Z,37.60
2019-04-06T10:39:25.136Z,31.97
2019-04-06T10:42:00.576Z,33.40
2019-04-06T10:44:50.731Z,41.47
2019-04-06T10:47:35.589Z,36.63
2019-04-06T10:50:05.815Z,33.87
2019-04-06T10:52:44.491Z,33.53
2019-04-06T10:55:14.373Z,34.53
2019-04-06T10:57:55.955Z,35.83
2019-04-06T11:00:37.450Z,38.93
2019-04-06T11:03:25.566Z,45.53
2019-04-06T11:05:58.038Z,34.90
2019-04-06T11:08:43.880Z,27.70
2019-04-06T11:11:20.659Z,37.23
2019-04-06T11:14:06.785Z,35.67
2019-04-06T11:16:52.786Z,31.50
2019-04-06T11:19:31.405Z,34.33
2019-04-06T11:22:10.311Z,34.07
2019-04-06T11:24:56.703Z,29.37
2019-04-06T11:27:44.355Z,31.20
2019-04-06T11:30:15.242Z,35.63
2019-04-06T11:33:01.499Z,37.53
2019-04-06T11:35:49.017Z,35.30
2019-04-06T11:38:24.911Z,38.70
2019-04-06T11:40:54.519Z,40.03
2019-04-06T11:43:23.782Z,35.13
2019-04-06T11:45:56.451Z,39.47
2019-04-06T11:48:31.737Z,45.83
2019-04-06T11:51:13.513Z,42.47
2019-04-06T11:53:57.935Z,39.53
2019-04-06T11:56:30.409Z,34.63
2019-04-06T11:59:12.209Z,40.33
2019-04-06T12:01:56.806Z,37.20
2019-04-06T12:04:29.178Z,42.30
2019-04-06T12:07:02.047Z,33.80
2019-04-06T12:09:34.259Z,36.67
2019-04-06T12:12:18.945Z,40.00
2019-04-06T12:14:54.640Z,39.40
2019-04-06T12:17:30.170Z,47.27
2019-04-06T12:20:05.937Z,45.57
2019-04-06T12:22:35.903Z,32.63
2019-04-06T12:25:09.292Z,32.73
2019-04-06T12:27:53.469Z,43.23
2019-04-06T12:30:38.656Z,35.17
2019-04-06T12:33:08.593Z,35.53
2019-04-06T12:35:38.418Z,44.13
2019-04-06T12:38:14.118Z,37.50
2019-04-06T12:40:43.834Z,43.10
2019-04-06T12:43:16.221Z,40.27
2019-04-06T12:46:00.859Z,48.30
2019-04-06T12:48:48.535Z,37.67
2019-04-06T12:51:34.106Z,41.27
2019-04-06T12:54:03.455Z,41.03
2019-04-06T12:56:32.702Z,41.87
2019-04-06T12:59:05.049Z,38.17
2019-04-06T13:01:35.160Z,38.13
2019-04-06T13:04:04.761Z,46.23
2019-04-06T13:06:37.257Z,42.87
2019-04-06T13:09:14.114Z,40.43
2019-04-06T13:11:43.444Z,38.50
2019-04-06T13:14:12.779Z,43.10
2019-04-06T13:16:55.176Z,42.17
2019-04-06T13:19:25.201Z,52.07
2019-04-06T13:22:11.601Z,44.77
2019-04-06T13:24:47.085Z,48.77
2019-04-06T13:27:16.313Z,45.53
2019-04-06T13:30:04.273Z,46.17
2019-04-06T13:32:40.201Z,49.43
2019-04-06T13:35:15.680Z,39.80
2019-04-06T13:37:44.913Z,43.53
2019-04-06T13:40:30.879Z,43.07
2019-04-06T13:43:12.390Z,49.37
2019-04-06T13:45:53.870Z,49.40
2019-04-06T13:48:26.620Z,48.77
2019-04-06T13:50:58.791Z,45.57
2019-04-06T13:53:28.447Z,49.63
2019-04-06T13:55:57.940Z,52.10
2019-04-06T13:58:27.215Z,48.60
2019-04-06T14:01:13.308Z,48.87
2019-04-06T14:03:33.740Z,48.87
2019-04-06T14:06:19.538Z,53.07
2019-04-06T14:09:05.240Z,49.30
2019-04-06T14:11:34.708Z,52.80
2019-04-06T14:14:07.194Z,53.87
2019-04-06T14:16:42.399Z,51.70
2019-04-06T14:19:11.658Z,51.73
2019-04-06T14:21:44.120Z,53.90
2019-04-06T14:24:26.366Z,57.07
2019-04-06T14:27:11.970Z,56.20
2019-04-06T14:29:41.719Z,57.03
2019-04-06T14:32:16.735Z,60.10
2019-04-06T14:35:02.714Z,62.50
2019-04-06T14:37:38.131Z,59.00
2019-04-06T14:40:20.378Z,60.63
2019-04-06T14:42:59.121Z,59.30
2019-04-06T14:45:40.782Z,57.33
2019-04-06T14:48:22.284Z,53.10
2019-04-06T14:51:03.949Z,53.00
2019-04-06T14:53:39.582Z,45.33
2019-04-06T14:56:11.673Z,33.20
2019-04-06T14:58:44.583Z,35.77
2019-04-06T15:01:14.344Z,33.97
2019-04-06T15:03:59.101Z,40.17
2019-04-06T15:06:34.531Z,32.33
2019-04-06T15:09:15.575Z,17.97
2019-04-06T15:11:45.372Z,28.03
2019-04-06T15:14:30.558Z,50.93
2019-04-06T15:17:09.463Z,128.17
2019-04-06T15:19:40.086Z,35.67
2019-04-06T15:22:09.713Z,25.00
2019-04-06T15:24:54.334Z,16.13
2019-04-06T15:27:40.147Z,15.20
2019-04-06T15:30:29.110Z,16.63
2019-04-06T15:33:01.302Z,14.43
2019-04-06T15:35:34.033Z,20.13
2019-04-06T15:38:03.779Z,18.30
2019-04-06T15:40:47.831Z,15.27
2019-04-06T15:43:26.273Z,109.13
2019-04-06T15:46:02.174Z,218.40
2019-04-06T15:48:47.819Z,366.03
2019-04-06T15:51:20.023Z,57.13
2019-04-06T15:53:52.014Z,208.27
2019-04-06T15:56:21.619Z,128.77
2019-04-06T15:58:59.649Z,178.57
2019-04-06T16:01:41.916Z,112.00
2019-04-06T16:04:20.662Z,20.08
2019-04-06T16:07:05.026Z,58.00
2019-04-06T16:09:50.655Z,34.73
2019-04-06T16:12:19.989Z,34.97
2019-04-06T16:14:49.630Z,23.73
2019-04-06T16:17:19.041Z,28.30
2019-04-06T16:19:48.381Z,29.53
2019-04-06T16:22:21.170Z,19.77
2019-04-06T16:24:51.205Z,23.90
2019-04-06T16:27:33.253Z,26.67
2019-04-06T16:30:08.520Z,13.73
2019-04-06T16:32:53.387Z,19.60
2019-04-06T16:35:25.892Z,30.37
2019-04-06T16:37:55.652Z,26.87
2019-04-06T16:40:36.921Z,23.47
2019-04-06T16:43:18.671Z,20.60
2019-04-06T16:45:53.896Z,30.17
2019-04-06T16:48:23.491Z,56.80
2019-04-06T16:51:02.959Z,124.93
2019-04-06T16:53:41.480Z,64.53
2019-04-06T16:56:11.009Z,38.97
2019-04-06T16:58:52.565Z,34.67
2019-04-06T17:01:28.688Z,43.27
2019-04-06T17:03:57.971Z,40.37
2019-04-06T17:06:43.924Z,145.67
2019-04-06T17:09:13.231Z,156.97
2019-04-06T17:11:57.482Z,218.43
2019-04-06T17:14:39.366Z,112.20
2019-04-06T17:17:16.341Z,84.03
2019-04-06T17:19:48.664Z,66.40
2019-04-06T17:22:33.596Z,68.80
2019-04-06T17:25:06.290Z,111.70
2019-04-06T17:27:36.122Z,64.97
2019-04-06T17:30:21.668Z,39.77
2019-04-06T17:32:54.154Z,31.93
2019-04-06T17:35:29.816Z,32.40
2019-04-06T17:37:59.174Z,29.83
2019-04-06T17:40:34.631Z,41.90
2019-04-06T17:43:03.940Z,42.17
2019-04-06T17:45:44.993Z,47.00
2019-04-06T17:48:14.683Z,39.53
2019-04-06T17:50:44.057Z,33.83
2019-04-06T17:53:16.139Z,36.60
2019-04-06T17:56:01.165Z,42.03
2019-04-06T17:58:46.750Z,60.63
2019-04-06T18:01:27.758Z,56.27
2019-04-06T18:04:06.365Z,56.13
2019-04-06T18:06:39.365Z,55.83
2019-04-06T18:09:09.815Z,49.13
2019-04-06T18:11:42.488Z,56.57
2019-04-06T18:14:10.354Z,54.03
2019-04-06T18:16:38.559Z,53.43
2019-04-06T18:19:06.814Z,49.97
2019-04-06T18:21:34.607Z,47.47
2019-04-06T18:24:02.267Z,42.93
2019-04-06T18:26:30.410Z,43.47
2019-04-06T18:28:58.574Z,41.50
2019-04-06T18:31:31.321Z,41.53
2019-04-06T18:33:59.371Z,41.03
2019-04-06T18:36:29.099Z,36.87
2019-04-06T18:44:25.638Z,37.57
2019-04-06T18:46:53.339Z,42.63
2019-04-06T18:49:21.051Z,36.77
2019-04-06T18:51:49.168Z,37.20
2019-04-06T18:54:16.892Z,39.60
2019-04-06T18:56:44.761Z,39.33
2019-04-06T18:59:12.949Z,43.93
2019-04-06T19:01:41.416Z,46.07
2019-04-06T19:04:10.389Z,43.07
2019-04-06T19:06:38.539Z,49.43
2019-04-06T19:09:14.776Z,50.77
2019-04-06T19:11:38.105Z,50.90
2019-04-06T19:14:05.896Z,51.30
2019-04-06T19:16:33.561Z,55.33
2019-04-06T19:19:01.634Z,48.47
2019-04-06T19:21:30.797Z,57.87
2019-04-06T19:23:58.790Z,54.17
2019-04-06T19:26:26.539Z,57.23
2019-04-06T19:28:55.271Z,57.07
2019-04-06T19:31:23.044Z,55.57
2019-04-06T19:33:51.190Z,51.13
2019-04-06T19:36:19.180Z,54.90
2019-04-06T19:38:47.393Z,49.37
2019-04-06T19:41:15.692Z,57.97
2019-04-06T19:43:43.434Z,58.13
2019-04-06T19:46:11.222Z,59.60
2019-04-06T19:48:40.560Z,61.93
2019-04-06T19:51:08.711Z,63.07
2019-04-06T19:53:36.397Z,60.27
2019-04-06T19:56:04.758Z,72.07
2019-04-06T19:58:32.796Z,68.50
2019-04-06T20:01:01.423Z,61.90
2019-04-06T20:03:35.965Z,61.87
2019-04-06T20:05:59.399Z,65.20
2019-04-06T20:08:27.207Z,74.27
2019-04-06T20:10:55.304Z,74.73
2019-04-06T20:13:23.248Z,66.13
2019-04-06T20:15:50.916Z,71.80
2019-04-06T20:18:19.186Z,76.50
2019-04-06T20:20:47.813Z,73.17
2019-04-06T20:23:16.426Z,74.70
2019-04-06T20:25:44.176Z,76.37
2019-04-06T20:28:12.227Z,77.00
2019-04-06T20:30:40.725Z,74.23
2019-04-06T20:33:08.909Z,76.53
2019-04-06T20:35:36.557Z,84.17
2019-04-06T20:38:05.240Z,82.92
2019-04-06T20:40:33.494Z,79.30
2019-04-06T20:43:01.726Z,70.60
2019-04-06T20:45:30.025Z,79.40
2019-04-06T20:47:57.868Z,87.63
2019-04-06T20:50:25.937Z,120.67
2019-04-06T20:52:54.090Z,148.23
2019-04-06T20:55:21.860Z,151.60
2019-04-06T20:57:50.059Z,165.20
2019-04-06T21:00:18.812Z,167.77
2019-04-06T21:02:46.801Z,115.37
2019-04-06T21:05:14.901Z,103.53
2019-04-06T21:07:42.675Z,82.57
2019-04-06T21:10:11.001Z,88.43
2019-04-06T21:12:38.785Z,106.00
2019-04-06T21:15:17.630Z,86.53
2019-04-06T21:17:37.163Z,78.83
2019-04-06T21:20:06.490Z,93.17
2019-04-06T21:22:34.310Z,88.97
2019-04-06T21:25:02.307Z,86.23
2019-04-06T21:27:30.456Z,85.17
2019-04-06T21:29:58.531Z,82.53
2019-04-06T21:32:27.036Z,84.30
2019-04-06T21:34:54.895Z,75.53
2019-04-06T21:37:22.698Z,73.53
2019-04-06T21:39:50.389Z,77.33
2019-04-06T21:42:18.493Z,80.17
2019-04-06T21:44:46.744Z,65.50
2019-04-06T21:47:14.977Z,69.60
2019-04-06T21:49:42.713Z,70.77
2019-04-06T21:52:11.307Z,66.83
2019-04-06T21:54:39.011Z,66.90
2019-04-06T21:57:07.244Z,60.90
2019-04-06T21:59:35.710Z,63.03
2019-04-06T22:02:03.551Z,70.97
2019-04-06T22:04:31.639Z,63.73
2019-04-06T22:06:59.256Z,64.83
2019-04-06T22:09:27.394Z,60.17
2019-04-06T22:11:55.053Z,62.10
2019-04-06T22:14:22.833Z,69.83
2019-04-06T22:16:50.652Z,67.90
2019-04-06T22:19:18.380Z,71.57
2019-04-06T22:21:46.439Z,62.27
2019-04-06T22:24:14.904Z,68.93
2019-04-06T22:26:43.079Z,63.23
2019-04-06T22:29:10.810Z,64.00
2019-04-06T22:31:38.477Z,67.03
2019-04-06T22:34:06.149Z,70.03
2019-04-06T22:36:34.627Z,66.07
2019-04-06T22:39:03.187Z,68.77
2019-04-06T22:41:31.275Z,69.80
2019-04-06T22:43:59.047Z,75.50
2019-04-06T22:46:26.847Z,67.27
2019-04-06T22:48:55.179Z,67.20
2019-04-06T22:51:22.967Z,69.00
2019-04-06T22:53:50.924Z,64.30
2019-04-06T22:56:18.613Z,70.30
2019-04-06T22:58:46.767Z,71.10
2019-04-06T23:01:16.285Z,59.30
2019-04-06T23:03:45.580Z,62.93
2019-04-06T23:06:15.331Z,59.73
2019-04-06T23:08:43.015Z,63.77
2019-04-06T23:11:11.612Z,57.97
2019-04-06T23:13:39.809Z,76.40
2019-04-06T23:16:07.575Z,73.47
2019-04-06T23:18:35.313Z,69.20
2019-04-06T23:21:03.020Z,61.23
2019-04-06T23:23:31.375Z,70.37
2019-04-06T23:25:59.787Z,70.07
2019-04-06T23:28:28.445Z,68.00
2019-04-06T23:30:57.023Z,70.33
2019-04-06T23:33:25.444Z,71.33
2019-04-06T23:35:54.111Z,64.67
2019-04-06T23:38:21.877Z,62.63
2019-04-06T23:40:49.946Z,68.90
2019-04-06T23:43:18.642Z,63.07
2019-04-06T23:45:47.027Z,65.27
2019-04-06T23:48:15.190Z,56.93
2019-04-06T23:50:43.907Z,57.20
2019-04-06T23:53:12.464Z,53.63
2019-04-06T23:55:40.286Z,43.57
2019-04-06T23:58:08.407Z,50.03
